createdAt,value
2017-01-02T00:00:21.980Z,0
2017-01-02T00:01:21.982Z,0
2017-01-02T00:02:22.080Z,0
2017-01-02T00:03:22.024Z,0
2017-01-02T00:04:22.031Z,0
2017-01-02T00:05:22.058Z,0
2017-01-02T00:06:22.055Z,0
2017-01-02T00:07:22.083Z,0
2017-01-02T00:08:22.084Z,0
2017-01-02T00:09:22.090Z,0
2017-01-02T00:10:22.172Z,0
2017-01-02T00:11:22.120Z,0
2017-01-02T00:12:22.140Z,0
2017-01-02T00:13:22.229Z,0
2017-01-02T00:14:22.146Z,0
2017-01-02T00:15:22.168Z,0
2017-01-02T00:16:22.167Z,0
2017-01-02T00:17:22.177Z,0
2017-01-02T00:18:22.277Z,0
2017-01-02T00:19:22.220Z,0
2017-01-02T00:20:22.227Z,0
2017-01-02T00:21:22.229Z,0
2017-01-02T00:22:22.247Z,0
2017-01-02T00:23:22.255Z,0
2017-01-02T00:24:22.271Z,0
2017-01-02T00:25:22.276Z,0
2017-01-02T00:26:22.295Z,0
2017-01-02T00:27:22.303Z,0
2017-01-02T00:28:22.322Z,0
2017-01-02T00:29:22.328Z,0
2017-01-02T00:30:22.335Z,0
2017-01-02T00:31:22.354Z,0
2017-01-02T00:32:22.367Z,0
2017-01-02T00:33:22.383Z,0
2017-01-02T00:34:22.381Z,0
2017-01-02T00:35:22.474Z,0
2017-01-02T00:36:22.416Z,0
2017-01-02T00:37:22.836Z,0
2017-01-02T00:38:22.448Z,0
2017-01-02T00:39:22.522Z,0
2017-01-02T00:40:22.468Z,0
2017-01-02T00:41:22.474Z,0
2017-01-02T00:42:22.483Z,0
2017-01-02T00:43:22.493Z,0
2017-01-02T00:44:22.586Z,0
2017-01-02T00:45:22.559Z,0
2017-01-02T00:46:22.545Z,0
2017-01-02T00:47:22.628Z,0
2017-01-02T00:48:22.544Z,0
2017-01-02T00:49:22.572Z,0
2017-01-02T00:50:22.577Z,0
2017-01-02T00:51:22.598Z,0
2017-01-02T00:52:22.612Z,0
2017-01-02T00:53:22.620Z,0
2017-01-02T00:54:22.625Z,0
2017-01-02T00:55:22.650Z,0
2017-01-02T00:56:22.651Z,0
2017-01-02T00:57:22.665Z,0
2017-01-02T00:58:22.671Z,0
2017-01-02T00:59:22.714Z,0
2017-01-02T01:00:22.710Z,0
2017-01-02T01:01:22.707Z,0
2017-01-02T01:02:22.728Z,0
2017-01-02T01:03:22.743Z,0
2017-01-02T01:04:22.754Z,0
2017-01-02T01:05:22.762Z,0
2017-01-02T01:06:22.754Z,0
2017-01-02T01:07:22.779Z,0
2017-01-02T01:08:22.799Z,0
2017-01-02T01:09:22.810Z,0
2017-01-02T01:10:22.820Z,0
2017-01-02T01:11:22.826Z,0
2017-01-02T01:12:22.843Z,0
2017-01-02T01:13:22.939Z,0
2017-01-02T01:14:22.864Z,0
2017-01-02T01:15:22.873Z,0
2017-01-02T01:16:22.881Z,0
2017-01-02T01:17:22.899Z,0
2017-01-02T01:18:22.903Z,0
2017-01-02T01:19:22.923Z,0
2017-01-02T01:20:22.929Z,0
2017-01-02T01:21:22.942Z,0
2017-01-02T01:22:22.956Z,0
2017-01-02T01:23:22.979Z,0
2017-01-02T01:24:23.022Z,0
2017-01-02T01:25:23.006Z,0
2017-01-02T01:26:23.001Z,0
2017-01-02T01:27:23.092Z,0
2017-01-02T01:28:23.029Z,0
2017-01-02T01:29:23.046Z,0
2017-01-02T01:30:23.129Z,0
2017-01-02T01:31:23.076Z,0
2017-01-02T01:32:23.090Z,0
2017-01-02T01:33:23.111Z,0
2017-01-02T01:34:23.116Z,0
2017-01-02T01:35:23.184Z,0
2017-01-02T01:36:23.134Z,0
2017-01-02T01:37:23.138Z,0
2017-01-02T01:38:23.179Z,0
2017-01-02T01:39:23.157Z,0
2017-01-02T01:40:23.171Z,0
2017-01-02T01:41:23.183Z,0
2017-01-02T01:42:23.197Z,0
2017-01-02T01:43:23.216Z,0
2017-01-02T01:44:23.221Z,0
2017-01-02T01:45:23.236Z,0
2017-01-02T01:46:23.235Z,0
2017-01-02T01:47:23.261Z,0
2017-01-02T01:48:23.270Z,0
2017-01-02T01:49:23.280Z,0
2017-01-02T01:50:23.296Z,0
2017-01-02T01:51:23.290Z,0
2017-01-02T01:52:23.325Z,0
2017-01-02T01:53:23.332Z,0
2017-01-02T01:54:23.337Z,0
2017-01-02T01:55:23.355Z,0
2017-01-02T01:56:23.372Z,0
2017-01-02T01:57:23.364Z,0
2017-01-02T01:58:23.379Z,0
2017-01-02T01:59:23.401Z,0
2017-01-02T02:00:23.411Z,0
2017-01-02T02:01:23.431Z,0
2017-01-02T02:02:23.523Z,0
2017-01-02T02:03:23.460Z,0
2017-01-02T02:04:23.458Z,0
2017-01-02T02:05:23.468Z,0
2017-01-02T02:06:23.485Z,0
2017-01-02T02:07:23.492Z,0
2017-01-02T02:08:23.502Z,0
2017-01-02T02:09:23.531Z,0
2017-01-02T02:10:23.525Z,0
2017-01-02T02:11:23.569Z,0
2017-01-02T02:12:23.552Z,0
2017-01-02T02:13:23.561Z,0
2017-01-02T02:14:23.652Z,0
2017-01-02T02:15:23.597Z,0
2017-01-02T02:16:23.603Z,0
2017-01-02T02:17:23.611Z,0
2017-01-02T02:18:23.623Z,0
2017-01-02T02:19:23.637Z,0
2017-01-02T02:20:23.659Z,0
2017-01-02T02:21:23.657Z,0
2017-01-02T02:22:23.665Z,0
2017-01-02T02:23:23.686Z,0
2017-01-02T02:24:23.736Z,0
2017-01-02T02:25:23.704Z,0
2017-01-02T02:26:23.729Z,0
2017-01-02T02:27:23.746Z,0
2017-01-02T02:28:23.754Z,0
2017-01-02T02:29:23.749Z,0
2017-01-02T02:30:23.819Z,0
2017-01-02T02:31:23.773Z,0
2017-01-02T02:32:23.789Z,0
2017-01-02T02:33:23.843Z,0
2017-01-02T02:34:23.824Z,0
2017-01-02T02:35:23.827Z,0
2017-01-02T02:36:23.950Z,0
2017-01-02T02:37:23.862Z,0
2017-01-02T02:38:23.860Z,0
2017-01-02T02:39:23.905Z,0
2017-01-02T02:40:23.887Z,0
2017-01-02T02:41:23.913Z,0
2017-01-02T02:42:23.921Z,0
2017-01-02T02:43:23.922Z,0
2017-01-02T02:44:23.943Z,0
2017-01-02T02:45:23.960Z,0
2017-01-02T02:46:23.965Z,0
2017-01-02T02:47:23.989Z,0
2017-01-02T02:48:23.986Z,0
2017-01-02T02:49:24.154Z,0
2017-01-02T02:50:24.000Z,0
2017-01-02T02:51:24.010Z,0
2017-01-02T02:52:24.034Z,0
2017-01-02T02:53:24.162Z,0
2017-01-02T02:54:24.054Z,0
2017-01-02T02:55:24.140Z,0
2017-01-02T02:56:24.087Z,0
2017-01-02T02:57:24.104Z,0
2017-01-02T02:58:24.109Z,0
2017-01-02T02:59:24.126Z,0
2017-01-02T03:00:24.134Z,0
2017-01-02T03:01:24.160Z,0
2017-01-02T03:02:24.155Z,0
2017-01-02T03:03:24.184Z,0
2017-01-02T03:04:24.168Z,0
2017-01-02T03:05:24.210Z,0
2017-01-02T03:06:24.208Z,0
2017-01-02T03:07:24.308Z,0
2017-01-02T03:08:24.225Z,0
2017-01-02T03:09:24.252Z,0
2017-01-02T03:10:24.248Z,0
2017-01-02T03:11:24.675Z,0
2017-01-02T03:12:24.271Z,0
2017-01-02T03:13:24.297Z,0
2017-01-02T03:14:24.293Z,0
2017-01-02T03:15:24.318Z,0
2017-01-02T03:16:24.322Z,0
2017-01-02T03:17:24.341Z,0
2017-01-02T03:18:24.351Z,0
2017-01-02T03:19:24.753Z,0
2017-01-02T03:20:24.374Z,0
2017-01-02T03:21:24.397Z,0
2017-01-02T03:22:24.393Z,0
2017-01-02T03:23:24.429Z,0
2017-01-02T03:24:24.416Z,0
2017-01-02T03:25:24.437Z,0
2017-01-02T03:26:24.435Z,0
2017-01-02T03:27:24.455Z,0
2017-01-02T03:28:24.455Z,0
2017-01-02T03:29:24.479Z,0
2017-01-02T03:30:24.494Z,0
2017-01-02T03:31:24.512Z,0
2017-01-02T03:32:24.515Z,0
2017-01-02T03:33:24.621Z,0
2017-01-02T03:34:24.539Z,0
2017-01-02T03:35:24.551Z,0
2017-01-02T03:36:24.551Z,0
2017-01-02T03:37:24.593Z,0
2017-01-02T03:38:24.611Z,0
2017-01-02T03:39:24.605Z,0
2017-01-02T03:40:24.602Z,0
2017-01-02T03:41:24.631Z,0
2017-01-02T03:42:24.631Z,0
2017-01-02T03:43:24.642Z,0
2017-01-02T03:44:24.646Z,0
2017-01-02T03:45:24.665Z,0
2017-01-02T03:46:24.682Z,0
2017-01-02T03:47:24.700Z,0
2017-01-02T03:48:24.698Z,0
2017-01-02T03:49:24.713Z,0
2017-01-02T03:50:24.731Z,0
2017-01-02T03:51:24.732Z,0
2017-01-02T03:52:24.743Z,0
2017-01-02T03:53:24.786Z,0
2017-01-02T03:54:24.769Z,0
2017-01-02T03:55:24.778Z,0
2017-01-02T03:56:24.802Z,0
2017-01-02T03:57:24.822Z,0
2017-01-02T03:58:24.812Z,0
2017-01-02T03:59:24.826Z,0
2017-01-02T04:01:25.031Z,0
2017-01-02T04:02:24.885Z,0
2017-01-02T04:03:24.921Z,0
2017-01-02T04:04:24.913Z,0
2017-01-02T04:05:24.947Z,0
2017-01-02T04:06:24.936Z,0
2017-01-02T04:07:24.963Z,0
2017-01-02T04:08:24.967Z,0
2017-01-02T04:09:25.013Z,0
2017-01-02T04:10:24.971Z,0
2017-01-02T04:11:25.001Z,0
2017-01-02T04:12:25.005Z,0
2017-01-02T04:13:25.027Z,0
2017-01-02T04:14:25.031Z,0
2017-01-02T04:15:25.230Z,0
2017-01-02T04:16:25.056Z,0
2017-01-02T04:17:25.052Z,0
2017-01-02T04:18:25.076Z,0
2017-01-02T04:19:25.111Z,0
2017-01-02T04:20:25.098Z,0
2017-01-02T04:21:25.199Z,0
2017-01-02T04:22:25.117Z,0
2017-01-02T04:23:25.147Z,0
2017-01-02T04:24:25.148Z,0
2017-01-02T04:25:25.164Z,0
2017-01-02T04:26:25.161Z,0
2017-01-02T04:27:25.196Z,0
2017-01-02T04:28:25.185Z,0
2017-01-02T04:29:25.214Z,0
2017-01-02T04:30:25.214Z,0
2017-01-02T04:31:25.230Z,0
2017-01-02T04:32:25.234Z,0
2017-01-02T04:33:25.249Z,0
2017-01-02T04:34:25.258Z,0
2017-01-02T04:35:25.279Z,0
2017-01-02T04:36:25.289Z,0
2017-01-02T04:37:25.314Z,0
2017-01-02T04:38:25.312Z,0
2017-01-02T04:39:25.327Z,0
2017-01-02T04:40:25.332Z,0
2017-01-02T04:41:25.353Z,0
2017-01-02T04:42:25.363Z,0
2017-01-02T04:43:25.449Z,0
2017-01-02T04:44:25.383Z,0
2017-01-02T04:45:25.404Z,0
2017-01-02T04:46:25.400Z,0
2017-01-02T04:47:25.423Z,0
2017-01-02T04:48:25.432Z,0
2017-01-02T04:49:25.457Z,0
2017-01-02T04:50:25.457Z,0
2017-01-02T04:51:25.453Z,0
2017-01-02T04:52:25.481Z,0
2017-01-02T04:53:25.496Z,0
2017-01-02T04:54:25.613Z,0
2017-01-02T04:55:25.521Z,0
2017-01-02T04:56:25.527Z,0
2017-01-02T04:57:25.621Z,0
2017-01-02T04:58:25.550Z,0
2017-01-02T04:59:25.563Z,0
2017-01-02T05:00:25.566Z,0
2017-01-02T05:01:25.572Z,0
2017-01-02T05:02:25.590Z,0
2017-01-02T05:03:25.596Z,0
2017-01-02T05:04:25.616Z,0
2017-01-02T05:05:25.634Z,0
2017-01-02T05:06:25.638Z,0
2017-01-02T05:07:25.687Z,0
2017-01-02T05:08:25.662Z,0
2017-01-02T05:09:25.681Z,0
2017-01-02T05:10:25.682Z,0
2017-01-02T05:11:25.704Z,0
2017-01-02T05:12:25.724Z,0
2017-01-02T05:13:25.719Z,0
2017-01-02T05:14:25.739Z,0
2017-01-02T05:15:25.756Z,0
2017-01-02T05:16:25.772Z,0
2017-01-02T05:17:25.791Z,0
2017-01-02T05:18:25.773Z,0
2017-01-02T05:19:25.801Z,0
2017-01-02T05:20:25.802Z,0
2017-01-02T05:21:25.815Z,0
2017-01-02T05:22:25.838Z,0
2017-01-02T05:23:25.837Z,0
2017-01-02T05:24:25.849Z,0
2017-01-02T05:25:25.864Z,0
2017-01-02T05:26:25.883Z,0
2017-01-02T05:27:25.895Z,0
2017-01-02T05:28:25.914Z,0
2017-01-02T05:29:25.941Z,0
2017-01-02T05:30:25.919Z,0
2017-01-02T05:31:25.927Z,0
2017-01-02T05:32:25.946Z,0
2017-01-02T05:33:25.978Z,0
2017-01-02T05:34:25.970Z,0
2017-01-02T05:35:25.987Z,0
2017-01-02T05:36:25.997Z,0
2017-01-02T05:37:26.013Z,0
2017-01-02T05:38:26.053Z,0
2017-01-02T05:39:26.023Z,0
2017-01-02T05:40:26.119Z,0
2017-01-02T05:41:26.049Z,0
2017-01-02T05:42:26.079Z,0
2017-01-02T05:43:26.073Z,0
2017-01-02T05:44:26.078Z,0
2017-01-02T05:45:26.107Z,0
2017-01-02T05:46:26.226Z,0
2017-01-02T05:47:26.120Z,0
2017-01-02T05:48:26.142Z,0
2017-01-02T05:49:26.239Z,0
2017-01-02T05:50:26.159Z,0
2017-01-02T05:51:26.165Z,0
2017-01-02T05:52:26.182Z,0
2017-01-02T05:53:26.206Z,0
2017-01-02T05:54:26.216Z,0
2017-01-02T05:55:26.218Z,0
2017-01-02T05:56:26.239Z,0
2017-01-02T05:57:26.258Z,0
2017-01-02T05:58:26.253Z,0
2017-01-02T05:59:26.337Z,0
2017-01-02T06:00:26.281Z,0
2017-01-02T06:01:26.303Z,0
2017-01-02T06:02:26.330Z,0
2017-01-02T06:03:26.325Z,0
2017-01-02T06:04:26.326Z,0
2017-01-02T06:05:26.345Z,0
2017-01-02T06:06:26.359Z,0
2017-01-02T06:07:26.374Z,0
2017-01-02T06:08:26.366Z,0
2017-01-02T06:09:26.387Z,0
2017-01-02T06:10:26.396Z,0
2017-01-02T06:11:26.405Z,0
2017-01-02T06:12:26.429Z,0
2017-01-02T06:13:26.439Z,0
2017-01-02T06:14:26.448Z,0
2017-01-02T06:15:26.469Z,0
2017-01-02T06:16:26.483Z,0
2017-01-02T06:17:26.897Z,0
2017-01-02T06:18:26.487Z,0
2017-01-02T06:19:26.502Z,0
2017-01-02T06:20:26.527Z,0
2017-01-02T06:21:26.547Z,0
2017-01-02T06:22:26.540Z,0
2017-01-02T06:23:26.566Z,0
2017-01-02T06:24:26.597Z,0
2017-01-02T06:25:26.585Z,0
2017-01-02T06:26:26.593Z,0
2017-01-02T06:27:26.607Z,0
2017-01-02T06:28:26.609Z,0
2017-01-02T06:29:26.623Z,0
2017-01-02T06:30:26.637Z,0
2017-01-02T06:31:26.650Z,0
2017-01-02T06:32:26.706Z,0
2017-01-02T06:33:26.671Z,0
2017-01-02T06:34:26.686Z,0
2017-01-02T06:35:26.711Z,0
2017-01-02T06:36:26.711Z,0
2017-01-02T06:37:26.767Z,0
2017-01-02T06:38:26.743Z,0
2017-01-02T06:39:26.752Z,0
2017-01-02T06:40:26.749Z,0
2017-01-02T06:41:26.763Z,0
2017-01-02T06:42:26.786Z,0
2017-01-02T06:43:26.796Z,0
2017-01-02T06:44:26.805Z,0
2017-01-02T06:45:26.814Z,0
2017-01-02T06:46:26.837Z,0
2017-01-02T06:47:26.849Z,0
2017-01-02T06:48:26.862Z,0
2017-01-02T06:49:26.870Z,0
2017-01-02T06:50:26.913Z,0
2017-01-02T06:51:26.908Z,0
2017-01-02T06:52:26.915Z,0
2017-01-02T06:53:26.907Z,0
2017-01-02T06:54:26.923Z,0
2017-01-02T06:55:26.969Z,0
2017-01-02T06:56:26.987Z,0
2017-01-02T06:57:26.956Z,0
2017-01-02T06:58:26.963Z,0
2017-01-02T06:59:26.985Z,0
2017-01-02T07:00:26.998Z,0
2017-01-02T07:01:27.019Z,0
2017-01-02T07:02:27.016Z,0
2017-01-02T07:03:27.029Z,0
2017-01-02T07:04:27.052Z,0
2017-01-02T07:05:27.065Z,0
2017-01-02T07:06:27.064Z,0
2017-01-02T07:07:27.071Z,0
2017-01-02T07:08:27.178Z,0
2017-01-02T07:09:27.092Z,0
2017-01-02T07:10:27.113Z,0
2017-01-02T07:11:27.129Z,0
2017-01-02T07:12:27.142Z,0
2017-01-02T07:13:27.161Z,0
2017-01-02T07:14:27.160Z,0
2017-01-02T07:15:27.175Z,0
2017-01-02T07:16:27.192Z,0
2017-01-02T07:17:27.198Z,0
2017-01-02T07:18:27.211Z,0
2017-01-02T07:19:27.227Z,0
2017-01-02T07:20:27.244Z,0
2017-01-02T07:21:27.246Z,0
2017-01-02T07:22:27.266Z,0
2017-01-02T07:23:27.266Z,0
2017-01-02T07:24:27.283Z,0
2017-01-02T07:25:27.294Z,0
2017-01-02T07:26:27.301Z,0
2017-01-02T07:27:27.311Z,0
2017-01-02T07:28:27.340Z,0
2017-01-02T07:29:27.343Z,0
2017-01-02T07:30:27.358Z,0
2017-01-02T07:31:27.362Z,0
2017-01-02T07:32:27.381Z,0
2017-01-02T07:33:27.397Z,0
2017-01-02T07:34:27.409Z,0
2017-01-02T07:35:27.418Z,0
2017-01-02T07:36:27.416Z,0
2017-01-02T07:37:27.435Z,0
2017-01-02T07:38:27.446Z,0
2017-01-02T07:39:27.489Z,0
2017-01-02T07:40:27.481Z,0
2017-01-02T07:41:27.517Z,0
2017-01-02T07:42:27.497Z,0
2017-01-02T07:43:27.521Z,0
2017-01-02T07:44:27.586Z,0
2017-01-02T07:45:27.533Z,0
2017-01-02T07:46:27.581Z,0
2017-01-02T07:47:27.554Z,0
2017-01-02T07:48:27.559Z,5
2017-01-02T07:49:27.572Z,5
2017-01-02T07:50:27.591Z,5
2017-01-02T07:51:27.625Z,5
2017-01-02T07:52:27.620Z,5
2017-01-02T07:53:27.628Z,5
2017-01-02T07:54:27.652Z,5
2017-01-02T07:55:27.650Z,5
2017-01-02T07:56:27.653Z,5
2017-01-02T07:57:27.684Z,5
2017-01-02T07:58:27.690Z,5
2017-01-02T07:59:27.860Z,5
2017-01-02T08:00:27.712Z,5
2017-01-02T08:01:27.817Z,5
2017-01-02T08:02:27.740Z,5
2017-01-02T08:03:27.748Z,5
2017-01-02T08:04:27.752Z,5
2017-01-02T08:05:27.778Z,5
2017-01-02T08:06:27.787Z,5
2017-01-02T08:07:27.795Z,5
2017-01-02T08:08:27.819Z,5
2017-01-02T08:09:27.816Z,10
2017-01-02T08:10:27.838Z,10
2017-01-02T08:11:27.838Z,10
2017-01-02T08:12:27.859Z,10
2017-01-02T08:13:27.867Z,10
2017-01-02T08:14:27.887Z,10
2017-01-02T08:15:27.902Z,10
2017-01-02T08:16:27.896Z,10
2017-01-02T08:17:27.924Z,10
2017-01-02T08:18:27.931Z,10
2017-01-02T08:19:27.947Z,10
2017-01-02T08:20:27.955Z,10
2017-01-02T08:21:27.968Z,10
2017-01-02T08:22:27.984Z,15
2017-01-02T08:23:27.984Z,15
2017-01-02T08:24:28.012Z,20
2017-01-02T08:25:28.019Z,20
2017-01-02T08:26:28.199Z,20
2017-01-02T08:27:28.036Z,20
2017-01-02T08:28:28.061Z,15
2017-01-02T08:29:28.063Z,15
2017-01-02T08:30:28.079Z,15
2017-01-02T08:31:28.092Z,15
2017-01-02T08:32:28.105Z,20
2017-01-02T08:33:28.143Z,20
2017-01-02T08:34:28.163Z,25
2017-01-02T08:35:28.138Z,25
2017-01-02T08:36:28.150Z,25
2017-01-02T08:37:28.152Z,20
2017-01-02T08:38:28.179Z,15
2017-01-02T08:39:28.181Z,15
2017-01-02T08:40:28.208Z,15
2017-01-02T08:41:28.213Z,15
2017-01-02T08:42:28.310Z,15
2017-01-02T08:43:28.230Z,15
2017-01-02T08:44:28.255Z,20
2017-01-02T08:45:28.260Z,25
2017-01-02T08:46:28.356Z,25
2017-01-02T08:47:28.282Z,30
2017-01-02T08:48:28.300Z,35
2017-01-02T08:49:28.318Z,45
2017-01-02T08:50:28.333Z,45
2017-01-02T08:51:28.736Z,50
2017-01-02T08:52:28.347Z,45
2017-01-02T08:53:28.360Z,50
2017-01-02T08:54:28.372Z,50
2017-01-02T08:55:28.367Z,50
2017-01-02T08:56:28.388Z,55
2017-01-02T08:57:28.819Z,50
2017-01-02T08:58:28.416Z,45
2017-01-02T08:59:28.425Z,50
2017-01-02T09:00:28.440Z,50
2017-01-02T09:01:28.468Z,60
2017-01-02T09:02:28.498Z,60
2017-01-02T09:03:28.474Z,50
2017-01-02T09:04:28.482Z,50
2017-01-02T09:05:28.497Z,40
2017-01-02T09:06:28.519Z,35
2017-01-02T09:07:28.947Z,30
2017-01-02T09:08:28.542Z,30
2017-01-02T09:09:28.560Z,30
2017-01-02T09:10:28.560Z,30
2017-01-02T09:11:28.611Z,35
2017-01-02T09:12:28.616Z,35
2017-01-02T09:13:28.600Z,40
2017-01-02T09:14:28.610Z,40
2017-01-02T09:15:28.711Z,40
2017-01-02T09:16:28.669Z,35
2017-01-02T09:17:28.769Z,30
2017-01-02T09:18:28.773Z,35
2017-01-02T09:19:28.733Z,40
2017-01-02T09:20:28.700Z,60
2017-01-02T09:21:28.744Z,65
2017-01-02T09:22:28.720Z,70
2017-01-02T09:23:28.773Z,75
2017-01-02T09:24:28.739Z,85
2017-01-02T09:25:28.780Z,85
2017-01-02T09:26:28.783Z,75
2017-01-02T09:27:28.880Z,70
2017-01-02T09:28:28.787Z,75
2017-01-02T09:29:28.809Z,95
2017-01-02T09:30:28.816Z,115
2017-01-02T09:31:28.849Z,125
2017-01-02T09:32:28.873Z,120
2017-01-02T09:33:28.914Z,105
2017-01-02T09:34:28.881Z,85
2017-01-02T09:35:28.885Z,75
2017-01-02T09:36:28.916Z,75
2017-01-02T09:37:28.961Z,80
2017-01-02T09:38:28.965Z,85
2017-01-02T09:39:28.978Z,95
2017-01-02T09:40:28.994Z,115
2017-01-02T09:41:28.958Z,135
2017-01-02T09:42:29.000Z,135
2017-01-02T09:43:28.977Z,135
2017-01-02T09:44:28.995Z,135
2017-01-02T09:45:29.011Z,135
2017-01-02T09:46:29.038Z,115
2017-01-02T09:47:29.169Z,75
2017-01-02T09:48:29.168Z,65
2017-01-02T09:49:29.094Z,55
2017-01-02T09:50:29.081Z,50
2017-01-02T09:51:29.118Z,50
2017-01-02T09:52:29.153Z,50
2017-01-02T09:53:29.113Z,55
2017-01-02T09:54:29.135Z,60
2017-01-02T09:55:29.191Z,60
2017-01-02T09:56:29.200Z,65
2017-01-02T09:57:29.171Z,70
2017-01-02T09:58:29.180Z,70
2017-01-02T09:59:29.195Z,70
2017-01-02T10:00:29.231Z,70
2017-01-02T10:01:29.228Z,60
2017-01-02T10:02:29.242Z,65
2017-01-02T10:03:29.242Z,70
2017-01-02T10:04:29.254Z,75
2017-01-02T10:05:29.281Z,70
2017-01-02T10:06:29.268Z,70
2017-01-02T10:07:29.299Z,70
2017-01-02T10:08:29.344Z,70
2017-01-02T10:09:29.314Z,70
2017-01-02T10:10:29.388Z,70
2017-01-02T10:11:29.387Z,70
2017-01-02T10:12:29.356Z,70
2017-01-02T10:13:29.399Z,60
2017-01-02T10:14:29.410Z,50
2017-01-02T10:15:29.395Z,45
2017-01-02T10:16:29.396Z,40
2017-01-02T10:17:29.427Z,40
2017-01-02T10:18:29.434Z,45
2017-01-02T10:19:29.487Z,45
2017-01-02T10:20:29.494Z,45
2017-01-02T10:21:29.494Z,45
2017-01-02T10:22:29.520Z,45
2017-01-02T10:23:29.533Z,55
2017-01-02T10:24:29.556Z,65
2017-01-02T10:25:29.564Z,55
2017-01-02T10:26:29.599Z,50
2017-01-02T10:27:29.601Z,45
2017-01-02T10:28:29.575Z,45
2017-01-02T10:29:29.564Z,45
2017-01-02T10:30:29.583Z,45
2017-01-02T10:31:29.588Z,45
2017-01-02T10:32:29.601Z,40
2017-01-02T10:33:29.628Z,40
2017-01-02T10:34:29.646Z,35
2017-01-02T10:35:29.641Z,35
2017-01-02T10:36:29.662Z,35
2017-01-02T10:37:29.686Z,35
2017-01-02T10:38:29.690Z,35
2017-01-02T10:39:29.699Z,35
2017-01-02T10:40:29.708Z,35
2017-01-02T10:41:29.811Z,35
2017-01-02T10:42:29.730Z,35
2017-01-02T10:43:29.755Z,30
2017-01-02T10:44:29.765Z,30
2017-01-02T10:45:29.770Z,30
2017-01-02T10:46:29.778Z,30
2017-01-02T10:47:29.787Z,30
2017-01-02T10:48:29.813Z,30
2017-01-02T10:49:29.815Z,35
2017-01-02T10:50:29.844Z,35
2017-01-02T10:51:29.852Z,35
2017-01-02T10:52:29.863Z,35
2017-01-02T10:53:29.877Z,30
2017-01-02T10:54:29.875Z,30
2017-01-02T10:55:29.892Z,30
2017-01-02T10:56:29.937Z,30
2017-01-02T10:57:29.913Z,30
2017-01-02T10:58:29.945Z,30
2017-01-02T10:59:29.945Z,35
2017-01-02T11:00:29.961Z,35
2017-01-02T11:01:29.975Z,40
2017-01-02T11:02:29.990Z,45
2017-01-02T11:03:30.000Z,45
2017-01-02T11:04:30.017Z,45
2017-01-02T11:05:30.025Z,50
2017-01-02T11:06:30.034Z,55
2017-01-02T11:07:30.052Z,65
2017-01-02T11:08:30.065Z,75
2017-01-02T11:09:30.093Z,85
2017-01-02T11:10:30.075Z,80
2017-01-02T11:11:30.102Z,75
2017-01-02T11:12:30.103Z,70
2017-01-02T11:13:30.216Z,60
2017-01-02T11:14:30.130Z,60
2017-01-02T11:15:30.148Z,50
2017-01-02T11:16:30.166Z,40
2017-01-02T11:17:30.173Z,45
2017-01-02T11:18:30.184Z,45
2017-01-02T11:19:30.198Z,35
2017-01-02T11:20:30.207Z,35
2017-01-02T11:21:30.216Z,35
2017-01-02T11:22:30.235Z,40
2017-01-02T11:23:30.318Z,40
2017-01-02T11:24:30.276Z,45
2017-01-02T11:25:30.273Z,45
2017-01-02T11:26:30.284Z,45
2017-01-02T11:27:30.382Z,40
2017-01-02T11:28:30.318Z,40
2017-01-02T11:29:30.327Z,40
2017-01-02T11:30:30.340Z,40
2017-01-02T11:31:30.359Z,40
2017-01-02T11:32:30.368Z,45
2017-01-02T11:33:30.373Z,45
2017-01-02T11:34:30.466Z,50
2017-01-02T11:35:30.396Z,55
2017-01-02T11:36:30.407Z,55
2017-01-02T11:37:30.434Z,55
2017-01-02T11:38:30.436Z,60
2017-01-02T11:39:30.458Z,70
2017-01-02T11:40:30.455Z,75
2017-01-02T11:41:30.478Z,80
2017-01-02T11:42:30.479Z,85
2017-01-02T11:43:30.502Z,90
2017-01-02T11:44:30.518Z,95
2017-01-02T11:45:30.560Z,95
2017-01-02T11:46:30.534Z,95
2017-01-02T11:47:30.541Z,95
2017-01-02T11:48:30.560Z,95
2017-01-02T11:49:30.567Z,90
2017-01-02T11:50:30.586Z,90
2017-01-02T11:51:30.609Z,90
2017-01-02T11:52:30.617Z,95
2017-01-02T11:53:30.621Z,95
2017-01-02T11:54:30.637Z,95
2017-01-02T11:55:30.652Z,95
2017-01-02T11:56:30.671Z,90
2017-01-02T11:57:30.683Z,90
2017-01-02T11:58:30.689Z,90
2017-01-02T11:59:30.708Z,90
2017-01-02T12:00:30.792Z,90
2017-01-02T12:01:30.735Z,90
2017-01-02T12:02:30.767Z,85
2017-01-02T12:03:30.754Z,80
2017-01-02T12:04:30.763Z,70
2017-01-02T12:05:30.780Z,70
2017-01-02T12:06:30.796Z,65
2017-01-02T12:07:30.797Z,60
2017-01-02T12:08:30.819Z,55
2017-01-02T12:09:30.835Z,50
2017-01-02T12:10:30.837Z,45
2017-01-02T12:11:30.867Z,40
2017-01-02T12:12:30.860Z,40
2017-01-02T12:13:30.891Z,40
2017-01-02T12:14:30.887Z,35
2017-01-02T12:15:30.898Z,35
2017-01-02T12:16:30.911Z,35
2017-01-02T12:17:30.933Z,35
2017-01-02T12:18:30.958Z,40
2017-01-02T12:19:30.948Z,40
2017-01-02T12:20:30.967Z,35
2017-01-02T12:21:30.977Z,35
2017-01-02T12:22:31.070Z,40
2017-01-02T12:23:31.015Z,45
2017-01-02T12:24:31.068Z,45
2017-01-02T12:25:31.048Z,55
2017-01-02T12:26:31.063Z,65
2017-01-02T12:27:31.057Z,65
2017-01-02T12:28:31.074Z,75
2017-01-02T12:29:31.096Z,80
2017-01-02T12:30:31.102Z,80
2017-01-02T12:31:31.117Z,85
2017-01-02T12:32:31.162Z,80
2017-01-02T12:33:31.164Z,80
2017-01-02T12:34:31.166Z,85
2017-01-02T12:35:31.207Z,85
2017-01-02T12:36:31.173Z,75
2017-01-02T12:37:31.191Z,70
2017-01-02T12:38:31.253Z,60
2017-01-02T12:39:31.223Z,50
2017-01-02T12:40:31.215Z,45
2017-01-02T12:41:31.234Z,40
2017-01-02T12:42:31.255Z,35
2017-01-02T12:43:31.264Z,35
2017-01-02T12:44:31.272Z,35
2017-01-02T12:45:31.320Z,40
2017-01-02T12:46:31.306Z,40
2017-01-02T12:47:31.396Z,35
2017-01-02T12:48:31.338Z,35
2017-01-02T12:49:31.399Z,35
2017-01-02T12:50:31.392Z,35
2017-01-02T12:51:31.395Z,35
2017-01-02T12:52:31.380Z,35
2017-01-02T12:53:31.455Z,35
2017-01-02T12:54:31.415Z,35
2017-01-02T12:55:31.417Z,40
2017-01-02T12:56:31.426Z,40
2017-01-02T12:57:31.479Z,40
2017-01-02T12:58:31.558Z,45
2017-01-02T12:59:31.480Z,45
2017-01-02T13:00:31.574Z,45
2017-01-02T13:01:31.487Z,45
2017-01-02T13:02:31.528Z,45
2017-01-02T13:03:31.521Z,45
2017-01-02T13:04:31.538Z,50
2017-01-02T13:05:31.551Z,50
2017-01-02T13:06:31.563Z,50
2017-01-02T13:07:31.556Z,50
2017-01-02T13:08:31.591Z,50
2017-01-02T13:09:31.593Z,55
2017-01-02T13:10:31.604Z,50
2017-01-02T13:11:31.676Z,50
2017-01-02T13:12:31.683Z,50
2017-01-02T13:13:31.684Z,50
2017-01-02T13:14:31.663Z,55
2017-01-02T13:15:31.728Z,55
2017-01-02T13:16:31.700Z,55
2017-01-02T13:17:31.718Z,55
2017-01-02T13:18:31.717Z,55
2017-01-02T13:19:31.802Z,55
2017-01-02T13:20:31.747Z,50
2017-01-02T13:21:31.811Z,50
2017-01-02T13:22:31.761Z,50
2017-01-02T13:23:31.881Z,50
2017-01-02T13:24:31.787Z,45
2017-01-02T13:25:31.802Z,45
2017-01-02T13:26:31.836Z,40
2017-01-02T13:27:31.846Z,40
2017-01-02T13:28:31.910Z,40
2017-01-02T13:29:31.891Z,40
2017-01-02T13:30:31.871Z,40
2017-01-02T13:31:31.884Z,35
2017-01-02T13:32:31.895Z,35
2017-01-02T13:33:31.990Z,35
2017-01-02T13:34:31.924Z,35
2017-01-02T13:35:31.924Z,30
2017-01-02T13:36:31.941Z,30
2017-01-02T13:37:31.948Z,30
2017-01-02T13:38:31.965Z,35
2017-01-02T13:39:31.984Z,35
2017-01-02T13:40:31.992Z,40
2017-01-02T13:41:32.006Z,40
2017-01-02T13:42:32.050Z,40
2017-01-02T13:43:32.024Z,45
2017-01-02T13:44:32.046Z,45
2017-01-02T13:45:32.055Z,45
2017-01-02T13:46:32.072Z,40
2017-01-02T13:47:32.090Z,40
2017-01-02T13:48:32.089Z,40
2017-01-02T13:49:32.200Z,35
2017-01-02T13:50:32.116Z,35
2017-01-02T13:51:32.129Z,35
2017-01-02T13:52:32.153Z,35
2017-01-02T13:53:32.255Z,35
2017-01-02T13:54:32.168Z,35
2017-01-02T13:55:32.195Z,35
2017-01-02T13:56:32.208Z,30
2017-01-02T13:57:32.207Z,30
2017-01-02T13:58:32.226Z,25
2017-01-02T13:59:32.243Z,25
2017-01-02T14:00:32.265Z,25
2017-01-02T14:01:32.266Z,25
2017-01-02T14:02:32.281Z,25
2017-01-02T14:03:32.294Z,25
2017-01-02T14:04:32.293Z,25
2017-01-02T14:05:32.314Z,25
2017-01-02T14:06:32.316Z,25
2017-01-02T14:07:32.348Z,30
2017-01-02T14:08:32.349Z,30
2017-01-02T14:09:32.378Z,30
2017-01-02T14:10:32.385Z,30
2017-01-02T14:11:32.399Z,30
2017-01-02T14:12:32.401Z,30
2017-01-02T14:13:32.414Z,30
2017-01-02T14:14:32.435Z,25
2017-01-02T14:15:32.433Z,20
2017-01-02T14:16:32.445Z,20
2017-01-02T14:17:32.454Z,20
2017-01-02T14:18:32.553Z,20
2017-01-02T14:19:32.491Z,20
2017-01-02T14:20:32.497Z,20
2017-01-02T14:21:32.531Z,20
2017-01-02T14:22:32.538Z,25
2017-01-02T14:23:32.546Z,25
2017-01-02T14:24:32.556Z,20
2017-01-02T14:25:32.575Z,20
2017-01-02T14:26:32.580Z,20
2017-01-02T14:27:32.676Z,20
2017-01-02T14:28:32.681Z,20
2017-01-02T14:29:32.626Z,20
2017-01-02T14:30:32.636Z,25
2017-01-02T14:31:32.641Z,20
2017-01-02T14:32:32.653Z,20
2017-01-02T14:33:32.679Z,25